sensor_id;sensor_type;location;lat;lon;timestamp;pressure;altitude;pressure_sealevel;temperature;humidity
16331;BME280;8275;48.206;16.340;2023-04-28T00:00:57;99602.59;;;15.13;27.76
16331;BME280;8275;48.206;16.340;2023-04-28T00:03:25;99602.03;;;15.11;27.77
16331;BME280;8275;48.206;16.340;2023-04-28T00:05:54;99606.19;;;15.09;27.77
16331;BME280;8275;48.206;16.340;2023-04-28T00:08:23;99596.28;;;15.08;27.99
16331;BME280;8275;48.206;16.340;2023-04-28T00:10:53;99598.75;;;15.04;28.09
16331;BME280;8275;48.206;16.340;2023-04-28T00:13:21;99595.16;;;15.04;28.09
16331;BME280;8275;48.206;16.340;2023-04-28T00:15:51;99599.28;;;15.01;28.13
16331;BME280;8275;48.206;16.340;2023-04-28T00:18:20;99598.75;;;14.99;28.11
16331;BME280;8275;48.206;16.340;2023-04-28T00:20:49;99589.91;;;14.97;28.21
16331;BME280;8275;48.206;16.340;2023-04-28T00:23:17;99592.97;;;14.96;28.13
16331;BME280;8275;48.206;16.340;2023-04-28T00:25:50;99596.25;;;14.93;28.29
16331;BME280;8275;48.206;16.340;2023-04-28T00:28:19;99593.50;;;14.93;28.45
16331;BME280;8275;48.206;16.340;2023-04-28T00:31:08;99589.91;;;14.92;28.46
16331;BME280;8275;48.206;16.340;2023-04-28T00:33:37;99588.00;;;14.93;28.53
16331;BME280;8275;48.206;16.340;2023-04-28T00:36:06;99595.44;;;14.92;28.39
16331;BME280;8275;48.206;16.340;2023-04-28T00:38:34;99589.09;;;14.92;28.54
16331;BME280;8275;48.206;16.340;2023-04-28T00:41:03;99577.25;;;14.91;28.56
16331;BME280;8275;48.206;16.340;2023-04-28T00:43:42;99578.06;;;14.92;28.60
16331;BME280;8275;48.206;16.340;2023-04-28T00:46:19;99586.59;;;14.90;28.67
16331;BME280;8275;48.206;16.340;2023-04-28T00:48:48;99586.91;;;14.89;28.38
16331;BME280;8275;48.206;16.340;2023-04-28T00:51:17;99582.75;;;14.86;28.69
16331;BME280;8275;48.206;16.340;2023-04-28T00:53:45;99579.44;;;14.84;28.69
16331;BME280;8275;48.206;16.340;2023-04-28T00:56:14;99581.66;;;14.82;28.72
16331;BME280;8275;48.206;16.340;2023-04-28T00:58:43;99579.16;;;14.81;28.75
16331;BME280;8275;48.206;16.340;2023-04-28T01:01:12;99578.91;;;14.77;28.83
16331;BME280;8275;48.206;16.340;2023-04-28T01:03:41;99580.00;;;14.76;28.85
16331;BME280;8275;48.206;16.340;2023-04-28T01:06:10;99574.47;;;14.76;29.06
16331;BME280;8275;48.206;16.340;2023-04-28T01:08:39;99579.44;;;14.74;28.91
16331;BME280;8275;48.206;16.340;2023-04-28T01:11:08;99572.53;;;14.71;29.04
16331;BME280;8275;48.206;16.340;2023-04-28T01:13:40;99576.13;;;14.67;28.97
16331;BME280;8275;48.206;16.340;2023-04-28T01:16:08;99567.59;;;14.63;29.10
16331;BME280;8275;48.206;16.340;2023-04-28T01:18:43;99568.13;;;14.60;29.10
16331;BME280;8275;48.206;16.340;2023-04-28T01:21:14;99578.91;;;14.57;29.01
16331;BME280;8275;48.206;16.340;2023-04-28T01:23:46;99574.47;;;14.56;29.13
16331;BME280;8275;48.206;16.340;2023-04-28T01:26:14;99563.72;;;14.54;29.17
16331;BME280;8275;48.206;16.340;2023-04-28T01:28:42;99553.25;;;14.51;29.40
16331;BME280;8275;48.206;16.340;2023-04-28T01:31:11;99552.69;;;14.49;29.58
16331;BME280;8275;48.206;16.340;2023-04-28T01:33:39;99552.97;;;14.48;29.70
16331;BME280;8275;48.206;16.340;2023-04-28T01:36:08;99558.75;;;14.46;29.98
16331;BME280;8275;48.206;16.340;2023-04-28T01:38:37;99550.22;;;14.43;29.96
16331;BME280;8275;48.206;16.340;2023-04-28T01:41:06;99555.19;;;14.41;30.15
16331;BME280;8275;48.206;16.340;2023-04-28T01:43:35;99556.56;;;14.38;30.25
16331;BME280;8275;48.206;16.340;2023-04-28T01:46:03;99551.59;;;14.35;30.22
16331;BME280;8275;48.206;16.340;2023-04-28T01:48:32;99554.06;;;14.32;30.59
16331;BME280;8275;48.206;16.340;2023-04-28T01:51:01;99551.81;;;14.29;30.62
16331;BME280;8275;48.206;16.340;2023-04-28T01:53:29;99561.75;;;14.25;30.57
16331;BME280;8275;48.206;16.340;2023-04-28T01:55:57;99559.53;;;14.22;30.97
16331;BME280;8275;48.206;16.340;2023-04-28T01:58:27;99562.00;;;14.18;30.86
16331;BME280;8275;48.206;16.340;2023-04-28T02:00:55;99558.97;;;14.15;31.14
16331;BME280;8275;48.206;16.340;2023-04-28T02:03:24;99559.78;;;14.10;31.44
16331;BME280;8275;48.206;16.340;2023-04-28T02:05:54;99563.91;;;14.07;31.47
16331;BME280;8275;48.206;16.340;2023-04-28T02:08:22;99556.44;;;14.03;31.52
16331;BME280;8275;48.206;16.340;2023-04-28T02:10:51;99559.19;;;13.98;31.68
16331;BME280;8275;48.206;16.340;2023-04-28T02:13:19;99561.66;;;13.94;31.49
16331;BME280;8275;48.206;16.340;2023-04-28T02:15:49;99562.19;;;13.91;31.57
16331;BME280;8275;48.206;16.340;2023-04-28T02:18:18;99558.91;;;13.89;31.63
16331;BME280;8275;48.206;16.340;2023-04-28T02:20:46;99555.59;;;13.87;31.70
16331;BME280;8275;48.206;16.340;2023-04-28T02:23:14;99559.72;;;13.85;31.87
16331;BME280;8275;48.206;16.340;2023-04-28T02:25:43;99559.16;;;13.83;31.79
16331;BME280;8275;48.206;16.340;2023-04-28T02:28:11;99553.66;;;13.83;31.87
16331;BME280;8275;48.206;16.340;2023-04-28T02:30:40;99553.09;;;13.81;31.92
16331;BME280;8275;48.206;16.340;2023-04-28T02:33:10;99562.16;;;13.81;31.86
16331;BME280;8275;48.206;16.340;2023-04-28T02:35:38;99555.00;;;13.80;31.76
16331;BME280;8275;48.206;16.340;2023-04-28T02:38:07;99557.75;;;13.80;32.03
16331;BME280;8275;48.206;16.340;2023-04-28T02:40:35;99548.94;;;13.78;31.90
16331;BME280;8275;48.206;16.340;2023-04-28T02:43:03;99546.19;;;13.78;32.03
16331;BME280;8275;48.206;16.340;2023-04-28T02:45:32;99553.91;;;13.76;31.90
16331;BME280;8275;48.206;16.340;2023-04-28T02:48:00;99554.16;;;13.75;31.98
16331;BME280;8275;48.206;16.340;2023-04-28T02:50:32;99556.34;;;13.73;31.90
16331;BME280;8275;48.206;16.340;2023-04-28T02:53:00;99558.28;;;13.72;31.69
16331;BME280;8275;48.206;16.340;2023-04-28T02:55:28;99553.03;;;13.71;31.63
16331;BME280;8275;48.206;16.340;2023-04-28T02:57:58;99552.50;;;13.69;31.62
16331;BME280;8275;48.206;16.340;2023-04-28T03:00:26;99551.66;;;13.68;31.27
16331;BME280;8275;48.206;16.340;2023-04-28T03:02:55;99545.31;;;13.68;31.44
16331;BME280;8275;48.206;16.340;2023-04-28T03:05:23;99541.19;;;13.65;31.29
16331;BME280;8275;48.206;16.340;2023-04-28T03:07:53;99541.44;;;13.64;31.38
16331;BME280;8275;48.206;16.340;2023-04-28T03:10:22;99525.22;;;13.62;31.21
16331;BME280;8275;48.206;16.340;2023-04-28T03:12:50;99538.44;;;13.60;31.35
16331;BME280;8275;48.206;16.340;2023-04-28T03:15:18;99526.03;;;13.58;31.38
16331;BME280;8275;48.206;16.340;2023-04-28T03:17:47;99530.69;;;13.57;31.24
16331;BME280;8275;48.206;16.340;2023-04-28T03:20:15;99529.03;;;13.56;31.29
16331;BME280;8275;48.206;16.340;2023-04-28T03:22:44;99527.66;;;13.54;31.26
16331;BME280;8275;48.206;16.340;2023-04-28T03:25:14;99526.53;;;13.50;31.42
16331;BME280;8275;48.206;16.340;2023-04-28T03:27:42;99520.19;;;13.49;31.40
16331;BME280;8275;48.206;16.340;2023-04-28T03:30:11;99529.84;;;13.47;31.59
16331;BME280;8275;48.206;16.340;2023-04-28T03:32:40;99527.34;;;13.45;31.37
16331;BME280;8275;48.206;16.340;2023-04-28T03:35:09;99526.78;;;13.43;31.56
16331;BME280;8275;48.206;16.340;2023-04-28T03:37:37;99531.44;;;13.43;31.67
16331;BME280;8275;48.206;16.340;2023-04-28T03:40:07;99524.84;;;13.38;31.62
16331;BME280;8275;48.206;16.340;2023-04-28T03:42:37;99529.50;;;13.38;31.58
16331;BME280;8275;48.206;16.340;2023-04-28T03:45:07;99529.78;;;13.36;31.61
16331;BME280;8275;48.206;16.340;2023-04-28T03:47:36;99530.88;;;13.35;31.63
16331;BME280;8275;48.206;16.340;2023-04-28T03:50:06;99533.63;;;13.35;31.72
16331;BME280;8275;48.206;16.340;2023-04-28T03:52:35;99531.69;;;13.36;31.88
16331;BME280;8275;48.206;16.340;2023-04-28T03:55:04;99524.81;;;13.33;31.90
16331;BME280;8275;48.206;16.340;2023-04-28T03:57:33;99527.56;;;13.33;31.90
16331;BME280;8275;48.206;16.340;2023-04-28T04:00:05;99532.81;;;13.35;31.87
16331;BME280;8275;48.206;16.340;2023-04-28T04:02:34;99531.69;;;13.36;32.03
16331;BME280;8275;48.206;16.340;2023-04-28T04:05:03;99534.22;;;13.38;31.91
16331;BME280;8275;48.206;16.340;2023-04-28T04:07:32;99532.00;;;13.40;32.02
16331;BME280;8275;48.206;16.340;2023-04-28T04:10:00;99533.41;;;13.42;32.02
16331;BME280;8275;48.206;16.340;2023-04-28T04:12:30;99534.50;;;13.46;32.22
16331;BME280;8275;48.206;16.340;2023-04-28T04:14:59;99520.47;;;13.48;32.19
16331;BME280;8275;48.206;16.340;2023-04-28T04:17:29;99526.28;;;13.51;32.08
16331;BME280;8275;48.206;16.340;2023-04-28T04:19:57;99529.31;;;13.55;32.29
16331;BME280;8275;48.206;16.340;2023-04-28T04:22:26;99534.00;;;13.59;32.40
16331;BME280;8275;48.206;16.340;2023-04-28T04:24:54;99535.41;;;13.62;32.28
16331;BME280;8275;48.206;16.340;2023-04-28T04:27:23;99534.59;;;13.66;32.39
16331;BME280;8275;48.206;16.340;2023-04-28T04:29:52;99532.94;;;13.70;32.60
16331;BME280;8275;48.206;16.340;2023-04-28T04:32:20;99532.41;;;13.73;32.14
16331;BME280;8275;48.206;16.340;2023-04-28T04:34:50;99533.50;;;13.77;32.50
16331;BME280;8275;48.206;16.340;2023-04-28T04:37:18;99517.28;;;13.81;32.43
16331;BME280;8275;48.206;16.340;2023-04-28T04:39:47;99516.47;;;13.85;32.48
16331;BME280;8275;48.206;16.340;2023-04-28T04:42:15;99525.00;;;13.89;32.37
16331;BME280;8275;48.206;16.340;2023-04-28T04:44:52;99519.81;;;13.92;32.61
16331;BME280;8275;48.206;16.340;2023-04-28T04:47:20;99513.47;;;13.97;32.63
16331;BME280;8275;48.206;16.340;2023-04-28T04:49:51;99508.00;;;14.02;32.64
16331;BME280;8275;48.206;16.340;2023-04-28T04:52:19;99508.53;;;14.09;32.47
16331;BME280;8275;48.206;16.340;2023-04-28T04:54:48;99508.53;;;14.14;32.57
16331;BME280;8275;48.206;16.340;2023-04-28T04:57:16;99510.22;;;14.20;32.56
16331;BME280;8275;48.206;16.340;2023-04-28T04:59:45;99508.00;;;14.27;32.62
16331;BME280;8275;48.206;16.340;2023-04-28T05:02:13;99508.03;;;14.37;32.60
16331;BME280;8275;48.206;16.340;2023-04-28T05:04:42;99506.94;;;14.43;32.68
16331;BME280;8275;48.206;16.340;2023-04-28T05:07:12;99503.91;;;14.50;32.67
16331;BME280;8275;48.206;16.340;2023-04-28T05:09:40;99506.66;;;14.55;32.63
16331;BME280;8275;48.206;16.340;2023-04-28T05:12:08;99498.13;;;14.61;32.59
16331;BME280;8275;48.206;16.340;2023-04-28T05:14:37;99501.44;;;14.68;32.67
16331;BME280;8275;48.206;16.340;2023-04-28T05:17:05;99503.34;;;14.73;32.69
16331;BME280;8275;48.206;16.340;2023-04-28T05:19:34;99499.75;;;14.77;32.52
16331;BME280;8275;48.206;16.340;2023-04-28T05:22:02;99508.28;;;14.86;32.73
16331;BME280;8275;48.206;16.340;2023-04-28T05:24:32;99501.94;;;14.91;32.59
16331;BME280;8275;48.206;16.340;2023-04-28T05:27:00;99499.72;;;14.98;32.59
16331;BME280;8275;48.206;16.340;2023-04-28T05:29:29;99496.09;;;15.02;32.61
16331;BME280;8275;48.206;16.340;2023-04-28T05:31:57;99493.59;;;15.06;32.63
16331;BME280;8275;48.206;16.340;2023-04-28T05:34:26;99492.50;;;15.12;32.54
16331;BME280;8275;48.206;16.340;2023-04-28T05:36:54;99492.19;;;15.18;32.63
16331;BME280;8275;48.206;16.340;2023-04-28T05:39:22;99487.75;;;15.22;32.46
16331;BME280;8275;48.206;16.340;2023-04-28T05:41:52;99489.41;;;15.28;32.60
16331;BME280;8275;48.206;16.340;2023-04-28T05:44:20;99491.88;;;15.35;32.55
16331;BME280;8275;48.206;16.340;2023-04-28T05:46:49;99487.97;;;15.41;32.54
16331;BME280;8275;48.206;16.340;2023-04-28T05:49:17;99483.00;;;15.48;32.45
16331;BME280;8275;48.206;16.340;2023-04-28T05:51:46;99489.88;;;15.56;32.38
16331;BME280;8275;48.206;16.340;2023-04-28T05:54:14;99482.13;;;15.63;32.53
16331;BME280;8275;48.206;16.340;2023-04-28T05:56:43;99484.81;;;15.73;32.62
16331;BME280;8275;48.206;16.340;2023-04-28T05:59:13;99485.28;;;15.85;32.48
16331;BME280;8275;48.206;16.340;2023-04-28T06:01:41;99492.38;;;16.01;32.43
16331;BME280;8275;48.206;16.340;2023-04-28T06:04:10;99485.63;;;16.17;32.35
16331;BME280;8275;48.206;16.340;2023-04-28T06:06:39;99492.47;;;16.30;32.24
16331;BME280;8275;48.206;16.340;2023-04-28T06:09:07;99496.50;;;16.42;32.06
16331;BME280;8275;48.206;16.340;2023-04-28T06:11:36;99489.53;;;16.50;31.95
16331;BME280;8275;48.206;16.340;2023-04-28T06:14:04;99481.22;;;16.55;31.92
16331;BME280;8275;48.206;16.340;2023-04-28T06:16:34;99479.22;;;16.60;32.00
16331;BME280;8275;48.206;16.340;2023-04-28T06:19:03;99465.03;;;16.67;31.92
16331;BME280;8275;48.206;16.340;2023-04-28T06:21:31;99474.09;;;16.77;31.86
16331;BME280;8275;48.206;16.340;2023-04-28T06:24:00;99473.66;;;16.94;31.66
16331;BME280;8275;48.206;16.340;2023-04-28T06:26:28;99470.69;;;17.09;31.86
16331;BME280;8275;48.206;16.340;2023-04-28T06:28:57;99467.16;;;17.27;31.63
16331;BME280;8275;48.206;16.340;2023-04-28T06:31:25;99468.88;;;17.47;31.36
16331;BME280;8275;48.206;16.340;2023-04-28T06:33:55;99470.56;;;17.67;31.33
16331;BME280;8275;48.206;16.340;2023-04-28T06:36:23;99467.28;;;17.83;31.24
16331;BME280;8275;48.206;16.340;2023-04-28T06:38:52;99466.78;;;18.00;30.96
16331;BME280;8275;48.206;16.340;2023-04-28T06:41:21;99467.69;;;18.14;30.85
16331;BME280;8275;48.206;16.340;2023-04-28T06:43:50;99463.63;;;18.25;30.92
16331;BME280;8275;48.206;16.340;2023-04-28T06:46:18;99452.56;;;18.39;30.66
16331;BME280;8275;48.206;16.340;2023-04-28T06:48:47;99449.28;;;18.55;30.55
16331;BME280;8275;48.206;16.340;2023-04-28T06:51:16;99434.78;;;18.72;30.39
16331;BME280;8275;48.206;16.340;2023-04-28T06:53:45;99426.81;;;18.84;30.30
16331;BME280;8275;48.206;16.340;2023-04-28T06:56:13;99419.91;;;18.95;30.14
16331;BME280;8275;48.206;16.340;2023-04-28T06:58:42;99418.38;;;19.03;30.02
16331;BME280;8275;48.206;16.340;2023-04-28T07:01:10;99433.94;;;19.04;29.89
16331;BME280;8275;48.206;16.340;2023-04-28T07:03:38;99421.16;;;19.03;29.92
16331;BME280;8275;48.206;16.340;2023-04-28T07:06:07;99418.72;;;19.01;30.03
16331;BME280;8275;48.206;16.340;2023-04-28T07:08:37;99409.44;;;19.06;29.97
16331;BME280;8275;48.206;16.340;2023-04-28T07:11:05;99416.03;;;19.10;29.85
16331;BME280;8275;48.206;16.340;2023-04-28T07:13:34;99412.66;;;19.13;29.79
16331;BME280;8275;48.206;16.340;2023-04-28T07:16:03;99410.66;;;19.13;29.65
16331;BME280;8275;48.206;16.340;2023-04-28T07:18:32;99407.59;;;19.15;29.74
16331;BME280;8275;48.206;16.340;2023-04-28T07:21:00;99402.75;;;19.20;29.51
16331;BME280;8275;48.206;16.340;2023-04-28T07:23:31;99407.38;;;19.25;29.41
16331;BME280;8275;48.206;16.340;2023-04-28T07:26:01;99400.88;;;19.29;29.29
16331;BME280;8275;48.206;16.340;2023-04-28T07:28:29;99396.06;;;19.35;29.02
16331;BME280;8275;48.206;16.340;2023-04-28T07:30:58;99406.78;;;19.41;29.00
16331;BME280;8275;48.206;16.340;2023-04-28T07:33:26;99396.06;;;19.48;28.91
16331;BME280;8275;48.206;16.340;2023-04-28T07:35:55;99400.91;;;19.56;28.69
16331;BME280;8275;48.206;16.340;2023-04-28T07:38:23;99395.59;;;19.69;28.73
16331;BME280;8275;48.206;16.340;2023-04-28T07:40:52;99387.53;;;19.81;28.60
16331;BME280;8275;48.206;16.340;2023-04-28T07:43:22;99392.88;;;19.91;28.39
16331;BME280;8275;48.206;16.340;2023-04-28T07:45:50;99390.47;;;19.98;28.59
16331;BME280;8275;48.206;16.340;2023-04-28T07:48:19;99397.44;;;20.09;28.36
16331;BME280;8275;48.206;16.340;2023-04-28T07:50:47;99387.50;;;20.16;28.44
16331;BME280;8275;48.206;16.340;2023-04-28T07:53:16;99392.84;;;20.26;28.38
16331;BME280;8275;48.206;16.340;2023-04-28T07:55:44;99397.16;;;20.33;28.44
16331;BME280;8275;48.206;16.340;2023-04-28T07:58:13;99401.94;;;20.41;28.12
16331;BME280;8275;48.206;16.340;2023-04-28T08:00:43;99394.78;;;20.48;28.21
16331;BME280;8275;48.206;16.340;2023-04-28T08:03:11;99404.63;;;20.54;27.72
16331;BME280;8275;48.206;16.340;2023-04-28T08:05:40;99399.91;;;20.55;27.81
16331;BME280;8275;48.206;16.340;2023-04-28T08:08:09;99413.50;;;20.56;27.76
16331;BME280;8275;48.206;16.340;2023-04-28T08:10:37;99401.22;;;20.57;28.09
16331;BME280;8275;48.206;16.340;2023-04-28T08:13:08;99389.13;;;20.62;27.99
16331;BME280;8275;48.206;16.340;2023-04-28T08:15:36;99392.16;;;20.74;28.16
16331;BME280;8275;48.206;16.340;2023-04-28T08:18:06;99391.09;;;20.92;27.76
16331;BME280;8275;48.206;16.340;2023-04-28T08:20:35;99389.22;;;21.10;27.73
16331;BME280;8275;48.206;16.340;2023-04-28T08:23:03;99371.88;;;21.21;27.70
16331;BME280;8275;48.206;16.340;2023-04-28T08:25:31;99371.94;;;21.38;27.76
16331;BME280;8275;48.206;16.340;2023-04-28T08:28:00;99366.88;;;21.57;27.60
16331;BME280;8275;48.206;16.340;2023-04-28T08:30:29;99362.13;;;21.75;27.44
16331;BME280;8275;48.206;16.340;2023-04-28T08:32:58;99355.94;;;21.87;27.52
16331;BME280;8275;48.206;16.340;2023-04-28T08:35:27;99345.59;;;21.96;27.04
16331;BME280;8275;48.206;16.340;2023-04-28T08:37:57;99344.09;;;22.07;26.99
16331;BME280;8275;48.206;16.340;2023-04-28T08:40:25;99353.78;;;22.18;26.94
16331;BME280;8275;48.206;16.340;2023-04-28T08:42:55;99352.78;;;22.22;26.40
16331;BME280;8275;48.206;16.340;2023-04-28T08:45:24;99354.44;;;22.23;26.61
16331;BME280;8275;48.206;16.340;2023-04-28T08:47:55;99336.34;;;22.29;26.44
16331;BME280;8275;48.206;16.340;2023-04-28T08:50:29;99327.81;;;22.34;26.12
16331;BME280;8275;48.206;16.340;2023-04-28T08:53:03;99329.25;;;22.49;26.44
16331;BME280;8275;48.206;16.340;2023-04-28T08:55:32;99329.50;;;22.73;26.32
16331;BME280;8275;48.206;16.340;2023-04-28T08:58:02;99324.66;;;22.91;26.01
16331;BME280;8275;48.206;16.340;2023-04-28T09:00:31;99319.53;;;23.01;26.12
16331;BME280;8275;48.206;16.340;2023-04-28T09:03:00;99319.94;;;23.12;25.89
16331;BME280;8275;48.206;16.340;2023-04-28T09:05:30;99321.19;;;23.23;25.99
16331;BME280;8275;48.206;16.340;2023-04-28T09:08:01;99327.72;;;23.36;25.70
16331;BME280;8275;48.206;16.340;2023-04-28T09:10:29;99320.72;;;23.50;25.45
16331;BME280;8275;48.206;16.340;2023-04-28T09:13:00;99317.97;;;23.62;25.40
16331;BME280;8275;48.206;16.340;2023-04-28T09:15:31;99318.41;;;23.73;25.53
16331;BME280;8275;48.206;16.340;2023-04-28T09:18:01;99312.72;;;23.82;25.43
16331;BME280;8275;48.206;16.340;2023-04-28T09:20:33;99305.56;;;23.93;25.22
16331;BME280;8275;48.206;16.340;2023-04-28T09:23:17;99308.13;;;23.98;25.14
16331;BME280;8275;48.206;16.340;2023-04-28T09:26:00;99295.78;;;23.99;25.20
16331;BME280;8275;48.206;16.340;2023-04-28T09:28:29;99294.09;;;24.06;25.09
16331;BME280;8275;48.206;16.340;2023-04-28T09:30:58;99286.56;;;24.19;24.99
16331;BME280;8275;48.206;16.340;2023-04-28T09:33:27;99281.56;;;24.36;24.88
16331;BME280;8275;48.206;16.340;2023-04-28T09:35:57;99280.56;;;24.53;24.77
16331;BME280;8275;48.206;16.340;2023-04-28T09:38:25;99274.41;;;24.72;24.59
16331;BME280;8275;48.206;16.340;2023-04-28T09:40:59;99278.53;;;24.86;24.54
16331;BME280;8275;48.206;16.340;2023-04-28T09:43:29;99258.41;;;24.96;24.05
16331;BME280;8275;48.206;16.340;2023-04-28T09:46:00;99260.31;;;25.04;23.92
16331;BME280;8275;48.206;16.340;2023-04-28T09:48:31;99254.91;;;25.12;23.79
16331;BME280;8275;48.206;16.340;2023-04-28T09:51:03;99237.13;;;25.20;23.89
16331;BME280;8275;48.206;16.340;2023-04-28T09:53:33;99244.13;;;25.26;23.97
16331;BME280;8275;48.206;16.340;2023-04-28T09:56:03;99235.38;;;25.27;23.48
16331;BME280;8275;48.206;16.340;2023-04-28T09:58:33;99236.88;;;25.37;23.50
16331;BME280;8275;48.206;16.340;2023-04-28T10:01:09;99220.13;;;25.52;23.33
16331;BME280;8275;48.206;16.340;2023-04-28T10:03:39;99216.94;;;25.66;23.59
16331;BME280;8275;48.206;16.340;2023-04-28T10:06:10;99218.03;;;25.77;23.27
16331;BME280;8275;48.206;16.340;2023-04-28T10:08:39;99203.84;;;25.86;22.99
16331;BME280;8275;48.206;16.340;2023-04-28T10:11:08;99190.47;;;25.95;22.82
16331;BME280;8275;48.206;16.340;2023-04-28T10:13:37;99207.16;;;26.03;22.63
16331;BME280;8275;48.206;16.340;2023-04-28T10:16:06;99195.06;;;26.15;22.71
16331;BME280;8275;48.206;16.340;2023-04-28T10:18:36;99206.75;;;26.32;22.84
16331;BME280;8275;48.206;16.340;2023-04-28T10:21:05;99198.75;;;26.50;22.33
16331;BME280;8275;48.206;16.340;2023-04-28T10:24:05;99195.41;;;26.60;22.64
16331;BME280;8275;48.206;16.340;2023-04-28T10:27:02;99201.41;;;26.74;22.65
16331;BME280;8275;48.206;16.340;2023-04-28T10:29:32;99173.72;;;26.92;22.37
16331;BME280;8275;48.206;16.340;2023-04-28T10:32:15;99153.09;;;27.03;21.70
16331;BME280;8275;48.206;16.340;2023-04-28T10:34:44;99168.72;;;27.20;21.59
16331;BME280;8275;48.206;16.340;2023-04-28T10:37:13;99154.09;;;27.30;21.79
16331;BME280;8275;48.206;16.340;2023-04-28T10:40:32;99158.41;;;27.43;21.66
16331;BME280;8275;48.206;16.340;2023-04-28T10:43:01;99152.25;;;27.57;21.46
16331;BME280;8275;48.206;16.340;2023-04-28T10:46:07;99153.28;;;27.68;21.43
16331;BME280;8275;48.206;16.340;2023-04-28T10:48:55;99149.19;;;27.84;21.15
16331;BME280;8275;48.206;16.340;2023-04-28T10:51:33;99145.16;;;28.05;21.37
16331;BME280;8275;48.206;16.340;2023-04-28T10:54:18;99153.00;;;28.15;21.00
16331;BME280;8275;48.206;16.340;2023-04-28T10:57:19;99142.78;;;28.29;21.10
16331;BME280;8275;48.206;16.340;2023-04-28T10:59:49;99137.94;;;28.52;20.97
16331;BME280;8275;48.206;16.340;2023-04-28T11:02:40;99143.00;;;28.66;20.67
16331;BME280;8275;48.206;16.340;2023-04-28T11:05:15;99136.50;;;28.88;20.25
16331;BME280;8275;48.206;16.340;2023-04-28T11:08:31;99137.97;;;29.08;20.70
16331;BME280;8275;48.206;16.340;2023-04-28T11:11:17;99117.34;;;29.31;20.36
16331;BME280;8275;48.206;16.340;2023-04-28T11:13:48;99122.88;;;29.53;20.10
16331;BME280;8275;48.206;16.340;2023-04-28T11:16:20;99110.56;;;29.72;19.70
16331;BME280;8275;48.206;16.340;2023-04-28T11:19:00;99103.69;;;30.06;19.53
16331;BME280;8275;48.206;16.340;2023-04-28T11:21:32;99101.63;;;30.47;19.36
16331;BME280;8275;48.206;16.340;2023-04-28T11:24:09;99086.91;;;30.85;19.31
16331;BME280;8275;48.206;16.340;2023-04-28T11:26:39;99077.44;;;31.21;18.78
16331;BME280;8275;48.206;16.340;2023-04-28T11:29:09;99065.84;;;31.55;18.43
16331;BME280;8275;48.206;16.340;2023-04-28T11:31:38;99071.56;;;31.90;17.91
16331;BME280;8275;48.206;16.340;2023-04-28T11:34:10;99065.94;;;32.15;17.43
16331;BME280;8275;48.206;16.340;2023-04-28T11:36:41;99067.56;;;32.33;17.38
16331;BME280;8275;48.206;16.340;2023-04-28T11:39:11;99053.41;;;32.30;17.42
16331;BME280;8275;48.206;16.340;2023-04-28T11:41:41;99055.81;;;32.24;16.98
16331;BME280;8275;48.206;16.340;2023-04-28T11:44:14;99055.84;;;32.07;16.96
16331;BME280;8275;48.206;16.340;2023-04-28T11:46:47;99054.56;;;31.79;17.12
16331;BME280;8275;48.206;16.340;2023-04-28T11:49:20;99051.69;;;31.55;17.23
16331;BME280;8275;48.206;16.340;2023-04-28T11:51:50;99054.00;;;31.32;17.77
16331;BME280;8275;48.206;16.340;2023-04-28T11:54:21;99060.81;;;31.13;17.55
16331;BME280;8275;48.206;16.340;2023-04-28T11:56:50;99064.00;;;31.04;17.42
16331;BME280;8275;48.206;16.340;2023-04-28T11:59:23;99055.09;;;30.95;17.70
16331;BME280;8275;48.206;16.340;2023-04-28T12:01:55;99056.31;;;30.94;17.47
16331;BME280;8275;48.206;16.340;2023-04-28T12:04:27;99063.16;;;30.97;17.47
16331;BME280;8275;48.206;16.340;2023-04-28T12:07:05;99055.47;;;30.90;17.67
16331;BME280;8275;48.206;16.340;2023-04-28T12:09:37;99055.78;;;30.85;17.65
16331;BME280;8275;48.206;16.340;2023-04-28T12:12:09;99046.44;;;30.74;17.59
16331;BME280;8275;48.206;16.340;2023-04-28T12:14:56;99057.66;;;30.57;17.90
16331;BME280;8275;48.206;16.340;2023-04-28T12:17:26;99059.63;;;30.45;17.67
16331;BME280;8275;48.206;16.340;2023-04-28T12:19:56;99068.88;;;30.39;17.94
16331;BME280;8275;48.206;16.340;2023-04-28T12:22:25;99078.91;;;30.33;18.07
16331;BME280;8275;48.206;16.340;2023-04-28T12:25:04;99081.50;;;30.12;18.16
16331;BME280;8275;48.206;16.340;2023-04-28T12:27:35;99080.94;;;29.92;18.03
16331;BME280;8275;48.206;16.340;2023-04-28T12:30:26;99089.06;;;29.60;18.19
16331;BME280;8275;48.206;16.340;2023-04-28T12:32:55;99096.06;;;29.40;18.27
16331;BME280;8275;48.206;16.340;2023-04-28T12:35:26;99099.03;;;29.17;18.25
16331;BME280;8275;48.206;16.340;2023-04-28T12:37:55;99104.41;;;29.00;18.50
16331;BME280;8275;48.206;16.340;2023-04-28T12:40:25;99098.88;;;28.77;18.59
16331;BME280;8275;48.206;16.340;2023-04-28T12:42:53;99093.53;;;28.46;18.60
16331;BME280;8275;48.206;16.340;2023-04-28T12:45:23;99095.00;;;28.14;19.25
16331;BME280;8275;48.206;16.340;2023-04-28T12:47:52;99084.84;;;27.87;19.47
16331;BME280;8275;48.206;16.340;2023-04-28T12:50:23;99080.03;;;27.64;19.49
16331;BME280;8275;48.206;16.340;2023-04-28T12:52:52;99088.22;;;27.50;19.97
16331;BME280;8275;48.206;16.340;2023-04-28T12:55:22;99087.91;;;27.36;19.63
16331;BME280;8275;48.206;16.340;2023-04-28T12:57:51;99101.75;;;27.26;19.98
16331;BME280;8275;48.206;16.340;2023-04-28T13:00:19;99092.59;;;27.09;19.77
16331;BME280;8275;48.206;16.340;2023-04-28T13:02:49;99095.81;;;26.92;20.24
16331;BME280;8275;48.206;16.340;2023-04-28T13:05:21;99095.25;;;26.68;20.35
16331;BME280;8275;48.206;16.340;2023-04-28T13:07:49;99081.41;;;26.43;20.13
16331;BME280;8275;48.206;16.340;2023-04-28T13:10:18;99084.09;;;26.21;20.43
16331;BME280;8275;48.206;16.340;2023-04-28T13:12:48;99094.41;;;26.01;20.80
16331;BME280;8275;48.206;16.340;2023-04-28T13:15:16;99098.75;;;25.83;20.99
16331;BME280;8275;48.206;16.340;2023-04-28T13:17:45;99089.94;;;25.69;21.23